sensor_id;sensor_type;location;lat;lon;timestamp;temperature;humidity
29571;DHT22;16814;52.118;11.436;2023-12-29T00:02:15;7.70;99.90
29571;DHT22;16814;52.118;11.436;2023-12-29T00:04:42;7.60;99.90
29571;DHT22;16814;52.118;11.436;2023-12-29T00:07:09;7.70;99.90
29571;DHT22;16814;52.118;11.436;2023-12-29T00:09:34;7.70;99.90
29571;DHT22;16814;52.118;11.436;2023-12-29T00:12:07;7.70;99.90
29571;DHT22;16814;52.118;11.436;2023-12-29T00:14:39;7.60;99.90
29571;DHT22;16814;52.118;11.436;2023-12-29T00:17:07;7.70;99.90
29571;DHT22;16814;52.118;11.436;2023-12-29T00:19:33;7.70;99.90
29571;DHT22;16814;52.118;11.436;2023-12-29T00:22:00;7.70;99.90
29571;DHT22;16814;52.118;11.436;2023-12-29T00:24:29;7.60;99.90
29571;DHT22;16814;52.118;11.436;2023-12-29T00:27:06;7.70;99.90
29571;DHT22;16814;52.118;11.436;2023-12-29T00:29:32;7.70;99.90
29571;DHT22;16814;52.118;11.436;2023-12-29T00:32:03;7.70;99.90
29571;DHT22;16814;52.118;11.436;2023-12-29T00:34:31;7.70;99.90
29571;DHT22;16814;52.118;11.436;2023-12-29T00:36:57;7.60;99.90
29571;DHT22;16814;52.118;11.436;2023-12-29T00:39:23;7.60;99.90
29571;DHT22;16814;52.118;11.436;2023-12-29T00:41:54;7.60;99.90
29571;DHT22;16814;52.118;11.436;2023-12-29T00:44:24;7.60;99.90
29571;DHT22;16814;52.118;11.436;2023-12-29T00:46:52;7.60;99.90
29571;DHT22;16814;52.118;11.436;2023-12-29T00:49:19;7.60;99.90
29571;DHT22;16814;52.118;11.436;2023-12-29T00:51:47;7.60;99.90
29571;DHT22;16814;52.118;11.436;2023-12-29T00:54:13;7.60;99.90
29571;DHT22;16814;52.118;11.436;2023-12-29T00:56:40;7.70;99.90
29571;DHT22;16814;52.118;11.436;2023-12-29T00:59:10;7.70;99.90
29571;DHT22;16814;52.118;11.436;2023-12-29T01:01:37;7.70;99.90
29571;DHT22;16814;52.118;11.436;2023-12-29T01:04:03;7.70;99.90
29571;DHT22;16814;52.118;11.436;2023-12-29T01:06:31;7.70;99.90
29571;DHT22;16814;52.118;11.436;2023-12-29T01:08:58;7.70;99.90
29571;DHT22;16814;52.118;11.436;2023-12-29T01:11:26;7.70;99.90
29571;DHT22;16814;52.118;11.436;2023-12-29T01:13:52;7.80;99.90
29571;DHT22;16814;52.118;11.436;2023-12-29T01:16:18;7.70;99.90
29571;DHT22;16814;52.118;11.436;2023-12-29T01:18:45;7.70;99.90
29571;DHT22;16814;52.118;11.436;2023-12-29T01:21:15;7.70;99.90
29571;DHT22;16814;52.118;11.436;2023-12-29T01:23:43;7.80;99.90
29571;DHT22;16814;52.118;11.436;2023-12-29T01:26:13;7.70;99.90
29571;DHT22;16814;52.118;11.436;2023-12-29T01:28:39;7.70;99.90
29571;DHT22;16814;52.118;11.436;2023-12-29T01:31:04;7.80;99.90
29571;DHT22;16814;52.118;11.436;2023-12-29T01:33:31;7.70;99.90
29571;DHT22;16814;52.118;11.436;2023-12-29T01:35:58;7.80;99.90
29571;DHT22;16814;52.118;11.436;2023-12-29T01:38:23;7.80;99.90
29571;DHT22;16814;52.118;11.436;2023-12-29T01:40:51;7.80;99.90
29571;DHT22;16814;52.118;11.436;2023-12-29T01:43:17;7.70;99.90
29571;DHT22;16814;52.118;11.436;2023-12-29T01:45:44;7.70;99.90
29571;DHT22;16814;52.118;11.436;2023-12-29T01:48:10;7.70;99.90
29571;DHT22;16814;52.118;11.436;2023-12-29T01:50:40;7.70;99.90
29571;DHT22;16814;52.118;11.436;2023-12-29T01:53:08;7.60;99.90
29571;DHT22;16814;52.118;11.436;2023-12-29T01:55:35;7.60;99.90
29571;DHT22;16814;52.118;11.436;2023-12-29T01:58:04;7.50;99.90
29571;DHT22;16814;52.118;11.436;2023-12-29T02:00:30;7.50;99.90
29571;DHT22;16814;52.118;11.436;2023-12-29T02:02:58;7.50;99.90
29571;DHT22;16814;52.118;11.436;2023-12-29T02:05:26;7.50;99.90
29571;DHT22;16814;52.118;11.436;2023-12-29T02:07:55;7.50;99.90
29571;DHT22;16814;52.118;11.436;2023-12-29T02:10:22;7.50;99.90
29571;DHT22;16814;52.118;11.436;2023-12-29T02:12:49;7.50;99.90
29571;DHT22;16814;52.118;11.436;2023-12-29T02:15:15;7.50;99.90
29571;DHT22;16814;52.118;11.436;2023-12-29T02:17:54;7.50;99.90
29571;DHT22;16814;52.118;11.436;2023-12-29T02:20:23;7.50;99.90
29571;DHT22;16814;52.118;11.436;2023-12-29T02:22:50;7.60;99.90
29571;DHT22;16814;52.118;11.436;2023-12-29T02:25:16;7.60;99.90
29571;DHT22;16814;52.118;11.436;2023-12-29T02:33:25;7.60;99.90
29571;DHT22;16814;52.118;11.436;2023-12-29T02:35:56;7.60;99.90
29571;DHT22;16814;52.118;11.436;2023-12-29T02:38:25;7.60;99.90
29571;DHT22;16814;52.118;11.436;2023-12-29T02:40:56;7.70;99.90
29571;DHT22;16814;52.118;11.436;2023-12-29T02:43:24;7.60;99.90
29571;DHT22;16814;52.118;11.436;2023-12-29T02:45:49;7.70;99.90
29571;DHT22;16814;52.118;11.436;2023-12-29T02:48:17;7.70;99.90
29571;DHT22;16814;52.118;11.436;2023-12-29T02:50:44;7.70;99.90
29571;DHT22;16814;52.118;11.436;2023-12-29T02:53:09;7.80;99.90
29571;DHT22;16814;52.118;11.436;2023-12-29T02:55:37;7.80;99.90
29571;DHT22;16814;52.118;11.436;2023-12-29T02:58:05;7.80;99.90
29571;DHT22;16814;52.118;11.436;2023-12-29T03:00:33;7.90;99.90
29571;DHT22;16814;52.118;11.436;2023-12-29T03:02:58;7.90;99.90
29571;DHT22;16814;52.118;11.436;2023-12-29T03:05:25;7.90;99.90
29571;DHT22;16814;52.118;11.436;2023-12-29T03:07:54;7.90;99.90
29571;DHT22;16814;52.118;11.436;2023-12-29T03:10:20;7.90;99.90
29571;DHT22;16814;52.118;11.436;2023-12-29T03:12:47;8.00;99.90
29571;DHT22;16814;52.118;11.436;2023-12-29T03:15:14;8.00;99.90
29571;DHT22;16814;52.118;11.436;2023-12-29T03:17:49;8.00;99.90
29571;DHT22;16814;52.118;11.436;2023-12-29T03:20:16;8.00;99.90
29571;DHT22;16814;52.118;11.436;2023-12-29T03:22:42;8.00;99.90
29571;DHT22;16814;52.118;11.436;2023-12-29T03:25:09;8.10;99.90
29571;DHT22;16814;52.118;11.436;2023-12-29T03:27:36;8.10;99.90
29571;DHT22;16814;52.118;11.436;2023-12-29T03:30:02;8.10;99.90
29571;DHT22;16814;52.118;11.436;2023-12-29T03:32:28;8.20;99.90
29571;DHT22;16814;52.118;11.436;2023-12-29T03:34:54;8.20;99.90
29571;DHT22;16814;52.118;11.436;2023-12-29T03:37:21;8.10;99.90
29571;DHT22;16814;52.118;11.436;2023-12-29T03:39:50;8.10;99.90
29571;DHT22;16814;52.118;11.436;2023-12-29T03:42:17;8.10;99.90
29571;DHT22;16814;52.118;11.436;2023-12-29T03:44:44;8.10;99.90
29571;DHT22;16814;52.118;11.436;2023-12-29T03:47:10;8.20;99.90
29571;DHT22;16814;52.118;11.436;2023-12-29T03:49:37;8.10;99.90
29571;DHT22;16814;52.118;11.436;2023-12-29T03:52:04;8.10;99.90
29571;DHT22;16814;52.118;11.436;2023-12-29T03:54:30;8.20;99.90
29571;DHT22;16814;52.118;11.436;2023-12-29T03:56:57;8.10;99.90
29571;DHT22;16814;52.118;11.436;2023-12-29T03:59:24;8.10;99.90
29571;DHT22;16814;52.118;11.436;2023-12-29T04:01:50;8.00;99.90
29571;DHT22;16814;52.118;11.436;2023-12-29T04:04:17;8.00;99.90
29571;DHT22;16814;52.118;11.436;2023-12-29T04:06:44;8.00;99.90
29571;DHT22;16814;52.118;11.436;2023-12-29T04:09:11;8.00;99.90
29571;DHT22;16814;52.118;11.436;2023-12-29T04:11:39;8.00;99.90
29571;DHT22;16814;52.118;11.436;2023-12-29T04:14:07;8.00;99.90
29571;DHT22;16814;52.118;11.436;2023-12-29T04:16:36;8.00;99.90
29571;DHT22;16814;52.118;11.436;2023-12-29T04:19:05;8.00;99.90
29571;DHT22;16814;52.118;11.436;2023-12-29T04:21:33;8.00;99.90
29571;DHT22;16814;52.118;11.436;2023-12-29T04:24:02;8.00;99.90
29571;DHT22;16814;52.118;11.436;2023-12-29T04:26:28;8.00;99.90
29571;DHT22;16814;52.118;11.436;2023-12-29T04:28:53;8.00;99.90
29571;DHT22;16814;52.118;11.436;2023-12-29T04:31:19;7.90;99.90
29571;DHT22;16814;52.118;11.436;2023-12-29T04:33:47;8.00;99.90
29571;DHT22;16814;52.118;11.436;2023-12-29T04:36:12;8.00;99.90
29571;DHT22;16814;52.118;11.436;2023-12-29T04:38:40;7.90;99.90
29571;DHT22;16814;52.118;11.436;2023-12-29T04:41:07;7.90;99.90
29571;DHT22;16814;52.118;11.436;2023-12-29T04:43:34;7.90;99.90
29571;DHT22;16814;52.118;11.436;2023-12-29T04:46:01;7.90;99.90
29571;DHT22;16814;52.118;11.436;2023-12-29T04:48:27;7.90;99.90
29571;DHT22;16814;52.118;11.436;2023-12-29T04:50:54;7.80;99.90
29571;DHT22;16814;52.118;11.436;2023-12-29T04:53:22;7.90;99.90
29571;DHT22;16814;52.118;11.436;2023-12-29T04:55:50;7.90;99.90
29571;DHT22;16814;52.118;11.436;2023-12-29T04:58:16;7.90;99.90
29571;DHT22;16814;52.118;11.436;2023-12-29T05:00:43;8.00;99.90
29571;DHT22;16814;52.118;11.436;2023-12-29T05:03:10;8.00;99.90
29571;DHT22;16814;52.118;11.436;2023-12-29T05:05:36;8.00;99.90
29571;DHT22;16814;52.118;11.436;2023-12-29T05:08:05;8.00;99.90
29571;DHT22;16814;52.118;11.436;2023-12-29T05:10:30;8.00;99.90
29571;DHT22;16814;52.118;11.436;2023-12-29T05:12:56;8.10;99.90
29571;DHT22;16814;52.118;11.436;2023-12-29T05:15:24;8.10;99.90
29571;DHT22;16814;52.118;11.436;2023-12-29T05:17:51;8.10;99.90
29571;DHT22;16814;52.118;11.436;2023-12-29T05:20:17;8.10;99.90
29571;DHT22;16814;52.118;11.436;2023-12-29T05:22:44;8.20;99.90
29571;DHT22;16814;52.118;11.436;2023-12-29T05:25:10;8.20;99.90
29571;DHT22;16814;52.118;11.436;2023-12-29T05:27:39;8.20;99.90
29571;DHT22;16814;52.118;11.436;2023-12-29T05:30:06;8.20;99.90
29571;DHT22;16814;52.118;11.436;2023-12-29T05:32:33;8.20;99.90
29571;DHT22;16814;52.118;11.436;2023-12-29T05:35:00;8.10;99.90
29571;DHT22;16814;52.118;11.436;2023-12-29T05:37:26;8.10;99.90
29571;DHT22;16814;52.118;11.436;2023-12-29T05:39:53;8.00;99.90
29571;DHT22;16814;52.118;11.436;2023-12-29T05:42:20;8.00;99.90
29571;DHT22;16814;52.118;11.436;2023-12-29T05:44:47;8.00;99.90
29571;DHT22;16814;52.118;11.436;2023-12-29T05:47:15;8.10;99.90
29571;DHT22;16814;52.118;11.436;2023-12-29T05:49:42;8.00;99.90
29571;DHT22;16814;52.118;11.436;2023-12-29T05:52:10;8.00;99.90
29571;DHT22;16814;52.118;11.436;2023-12-29T05:54:36;8.00;99.90
29571;DHT22;16814;52.118;11.436;2023-12-29T05:57:02;8.00;99.90
29571;DHT22;16814;52.118;11.436;2023-12-29T05:59:29;8.00;99.90
29571;DHT22;16814;52.118;11.436;2023-12-29T06:01:57;8.00;99.90
29571;DHT22;16814;52.118;11.436;2023-12-29T06:04:24;8.00;99.90
29571;DHT22;16814;52.118;11.436;2023-12-29T06:06:51;8.00;99.90
29571;DHT22;16814;52.118;11.436;2023-12-29T06:09:18;8.00;99.90
29571;DHT22;16814;52.118;11.436;2023-12-29T06:11:45;7.90;99.90
29571;DHT22;16814;52.118;11.436;2023-12-29T06:14:14;7.90;99.90
29571;DHT22;16814;52.118;11.436;2023-12-29T06:16:42;7.90;99.90
29571;DHT22;16814;52.118;11.436;2023-12-29T06:19:09;7.90;99.90
29571;DHT22;16814;52.118;11.436;2023-12-29T06:21:45;8.00;99.90
29571;DHT22;16814;52.118;11.436;2023-12-29T06:24:12;8.00;99.90
29571;DHT22;16814;52.118;11.436;2023-12-29T06:26:39;7.90;99.90
29571;DHT22;16814;52.118;11.436;2023-12-29T06:29:11;8.00;99.90
29571;DHT22;16814;52.118;11.436;2023-12-29T06:31:40;7.90;99.90
29571;DHT22;16814;52.118;11.436;2023-12-29T06:34:10;8.00;99.90
29571;DHT22;16814;52.118;11.436;2023-12-29T06:36:38;7.90;99.90
29571;DHT22;16814;52.118;11.436;2023-12-29T06:39:04;7.90;99.90
29571;DHT22;16814;52.118;11.436;2023-12-29T06:41:31;7.90;99.90
29571;DHT22;16814;52.118;11.436;2023-12-29T06:43:58;7.90;99.90
29571;DHT22;16814;52.118;11.436;2023-12-29T06:46:23;7.90;99.90
29571;DHT22;16814;52.118;11.436;2023-12-29T06:48:51;7.90;99.90
29571;DHT22;16814;52.118;11.436;2023-12-29T06:51:17;7.90;99.90
29571;DHT22;16814;52.118;11.436;2023-12-29T06:53:47;8.00;99.90
29571;DHT22;16814;52.118;11.436;2023-12-29T06:56:17;8.00;99.90
29571;DHT22;16814;52.118;11.436;2023-12-29T06:58:45;8.00;99.90
29571;DHT22;16814;52.118;11.436;2023-12-29T07:01:12;8.00;99.90
29571;DHT22;16814;52.118;11.436;2023-12-29T07:03:37;8.00;99.90
29571;DHT22;16814;52.118;11.436;2023-12-29T07:06:04;8.00;99.90
29571;DHT22;16814;52.118;11.436;2023-12-29T07:08:31;8.00;99.90
29571;DHT22;16814;52.118;11.436;2023-12-29T07:10:57;8.00;99.90
29571;DHT22;16814;52.118;11.436;2023-12-29T07:13:23;7.90;99.90
29571;DHT22;16814;52.118;11.436;2023-12-29T07:15:51;7.90;99.90
29571;DHT22;16814;52.118;11.436;2023-12-29T07:18:18;7.90;99.90
29571;DHT22;16814;52.118;11.436;2023-12-29T07:20:43;8.00;99.90
29571;DHT22;16814;52.118;11.436;2023-12-29T07:23:12;8.00;99.90
29571;DHT22;16814;52.118;11.436;2023-12-29T07:25:48;8.00;99.90
29571;DHT22;16814;52.118;11.436;2023-12-29T07:28:16;8.00;99.90
29571;DHT22;16814;52.118;11.436;2023-12-29T07:30:46;8.10;99.90
29571;DHT22;16814;52.118;11.436;2023-12-29T07:33:14;8.00;99.90
29571;DHT22;16814;52.118;11.436;2023-12-29T07:35:39;8.10;99.90
29571;DHT22;16814;52.118;11.436;2023-12-29T07:38:05;8.10;99.90
29571;DHT22;16814;52.118;11.436;2023-12-29T07:40:31;8.10;99.90
29571;DHT22;16814;52.118;11.436;2023-12-29T07:42:58;8.10;99.90
29571;DHT22;16814;52.118;11.436;2023-12-29T07:45:27;8.10;99.90
29571;DHT22;16814;52.118;11.436;2023-12-29T07:47:52;8.10;99.90
29571;DHT22;16814;52.118;11.436;2023-12-29T07:50:19;8.10;99.90
29571;DHT22;16814;52.118;11.436;2023-12-29T07:52:46;8.10;99.90
29571;DHT22;16814;52.118;11.436;2023-12-29T07:55:14;8.20;99.90
29571;DHT22;16814;52.118;11.436;2023-12-29T07:57:42;8.20;99.90
29571;DHT22;16814;52.118;11.436;2023-12-29T08:00:11;8.30;99.90
29571;DHT22;16814;52.118;11.436;2023-12-29T08:02:38;8.30;99.90
29571;DHT22;16814;52.118;11.436;2023-12-29T08:05:04;8.40;99.90
29571;DHT22;16814;52.118;11.436;2023-12-29T08:07:29;8.40;99.90
29571;DHT22;16814;52.118;11.436;2023-12-29T08:09:55;8.40;99.90
29571;DHT22;16814;52.118;11.436;2023-12-29T08:12:22;8.50;99.90
29571;DHT22;16814;52.118;11.436;2023-12-29T08:14:49;8.50;99.90
29571;DHT22;16814;52.118;11.436;2023-12-29T08:17:14;8.50;99.90
29571;DHT22;16814;52.118;11.436;2023-12-29T08:19:40;8.60;99.90
29571;DHT22;16814;52.118;11.436;2023-12-29T08:22:07;8.60;99.90
29571;DHT22;16814;52.118;11.436;2023-12-29T08:24:34;8.60;99.90
29571;DHT22;16814;52.118;11.436;2023-12-29T08:27:02;8.70;99.90
29571;DHT22;16814;52.118;11.436;2023-12-29T08:29:30;8.70;99.90
29571;DHT22;16814;52.118;11.436;2023-12-29T08:31:59;8.70;99.90
29571;DHT22;16814;52.118;11.436;2023-12-29T08:34:28;8.70;99.90
29571;DHT22;16814;52.118;11.436;2023-12-29T08:36:56;8.80;99.90
29571;DHT22;16814;52.118;11.436;2023-12-29T08:39:23;8.80;99.90
29571;DHT22;16814;52.118;11.436;2023-12-29T08:41:50;8.80;99.90
29571;DHT22;16814;52.118;11.436;2023-12-29T08:44:19;8.80;99.90
29571;DHT22;16814;52.118;11.436;2023-12-29T08:46:47;8.80;99.90
29571;DHT22;16814;52.118;11.436;2023-12-29T08:49:12;8.80;99.90
29571;DHT22;16814;52.118;11.436;2023-12-29T08:51:39;8.90;99.90
29571;DHT22;16814;52.118;11.436;2023-12-29T08:54:05;8.90;99.90
29571;DHT22;16814;52.118;11.436;2023-12-29T08:56:34;8.90;99.90
29571;DHT22;16814;52.118;11.436;2023-12-29T08:58:59;9.00;99.90
29571;DHT22;16814;52.118;11.436;2023-12-29T09:01:26;9.00;99.90
29571;DHT22;16814;52.118;11.436;2023-12-29T09:03:51;9.00;99.90
29571;DHT22;16814;52.118;11.436;2023-12-29T09:06:19;9.00;99.90
29571;DHT22;16814;52.118;11.436;2023-12-29T09:08:46;9.10;99.90
29571;DHT22;16814;52.118;11.436;2023-12-29T09:11:11;9.10;99.90
29571;DHT22;16814;52.118;11.436;2023-12-29T09:13:37;9.20;99.90
29571;DHT22;16814;52.118;11.436;2023-12-29T09:16:04;9.20;99.90
29571;DHT22;16814;52.118;11.436;2023-12-29T09:18:33;9.30;99.90
29571;DHT22;16814;52.118;11.436;2023-12-29T09:20:59;9.30;99.90
29571;DHT22;16814;52.118;11.436;2023-12-29T09:23:26;9.30;99.90
29571;DHT22;16814;52.118;11.436;2023-12-29T09:25:53;9.30;99.90
29571;DHT22;16814;52.118;11.436;2023-12-29T09:28:21;9.30;99.90
29571;DHT22;16814;52.118;11.436;2023-12-29T09:30:47;9.40;99.90
29571;DHT22;16814;52.118;11.436;2023-12-29T09:33:13;9.40;99.90
29571;DHT22;16814;52.118;11.436;2023-12-29T09:35:41;9.40;99.90
29571;DHT22;16814;52.118;11.436;2023-12-29T09:38:09;9.40;99.90
29571;DHT22;16814;52.118;11.436;2023-12-29T09:40:36;9.40;99.90
29571;DHT22;16814;52.118;11.436;2023-12-29T09:43:03;9.50;99.90
29571;DHT22;16814;52.118;11.436;2023-12-29T09:45:32;9.50;99.90
29571;DHT22;16814;52.118;11.436;2023-12-29T09:48:02;9.50;99.90
29571;DHT22;16814;52.118;11.436;2023-12-29T09:50:30;9.60;99.90
29571;DHT22;16814;52.118;11.436;2023-12-29T09:52:59;9.60;99.90
29571;DHT22;16814;52.118;11.436;2023-12-29T09:55:28;9.60;99.90
29571;DHT22;16814;52.118;11.436;2023-12-29T09:57:56;9.60;99.90
29571;DHT22;16814;52.118;11.436;2023-12-29T10:00:25;9.70;99.90
29571;DHT22;16814;52.118;11.436;2023-12-29T10:02:53;9.70;99.90
29571;DHT22;16814;52.118;11.436;2023-12-29T10:05:20;9.70;99.90
29571;DHT22;16814;52.118;11.436;2023-12-29T10:07:47;9.70;99.90
29571;DHT22;16814;52.118;11.436;2023-12-29T10:10:17;9.60;99.90
29571;DHT22;16814;52.118;11.436;2023-12-29T10:12:47;9.60;99.90
29571;DHT22;16814;52.118;11.436;2023-12-29T10:15:35;9.60;99.90
29571;DHT22;16814;52.118;11.436;2023-12-29T10:18:32;9.70;99.90
29571;DHT22;16814;52.118;11.436;2023-12-29T10:21:27;9.70;99.90
29571;DHT22;16814;52.118;11.436;2023-12-29T10:24:21;9.70;99.90
29571;DHT22;16814;52.118;11.436;2023-12-29T10:26:49;9.70;99.90
29571;DHT22;16814;52.118;11.436;2023-12-29T10:29:15;9.70;99.90
29571;DHT22;16814;52.118;11.436;2023-12-29T10:31:43;9.80;99.90
29571;DHT22;16814;52.118;11.436;2023-12-29T10:34:22;9.80;99.90
29571;DHT22;16814;52.118;11.436;2023-12-29T10:36:58;9.80;99.90
29571;DHT22;16814;52.118;11.436;2023-12-29T10:39:25;9.80;99.90
29571;DHT22;16814;52.118;11.436;2023-12-29T10:42:08;9.80;99.90
29571;DHT22;16814;52.118;11.436;2023-12-29T10:44:36;9.80;99.90
29571;DHT22;16814;52.118;11.436;2023-12-29T10:47:12;9.70;99.90
29571;DHT22;16814;52.118;11.436;2023-12-29T10:49:38;9.70;99.90
29571;DHT22;16814;52.118;11.436;2023-12-29T10:52:16;9.70;99.90
29571;DHT22;16814;52.118;11.436;2023-12-29T10:54:44;9.70;99.90
29571;DHT22;16814;52.118;11.436;2023-12-29T10:57:13;9.60;99.90
29571;DHT22;16814;52.118;11.436;2023-12-29T10:59:39;9.60;99.90
29571;DHT22;16814;52.118;11.436;2023-12-29T11:02:05;9.60;99.90
29571;DHT22;16814;52.118;11.436;2023-12-29T11:04:34;9.60;99.90
29571;DHT22;16814;52.118;11.436;2023-12-29T11:07:01;9.60;99.90
29571;DHT22;16814;52.118;11.436;2023-12-29T11:09:30;9.60;99.90
29571;DHT22;16814;52.118;11.436;2023-12-29T11:12:03;9.60;99.90
29571;DHT22;16814;52.118;11.436;2023-12-29T11:14:31;9.60;99.90
29571;DHT22;16814;52.118;11.436;2023-12-29T11:17:01;9.60;99.90
29571;DHT22;16814;52.118;11.436;2023-12-29T11:19:28;9.60;99.90
29571;DHT22;16814;52.118;11.436;2023-12-29T11:22:01;9.60;99.90
29571;DHT22;16814;52.118;11.436;2023-12-29T11:24:29;9.60;99.90
29571;DHT22;16814;52.118;11.436;2023-12-29T11:26:57;9.60;99.90
29571;DHT22;16814;52.118;11.436;2023-12-29T11:29:24;9.60;99.90
29571;DHT22;16814;52.118;11.436;2023-12-29T11:31:52;9.60;99.90
29571;DHT22;16814;52.118;11.436;2023-12-29T11:34:37;9.70;99.90
29571;DHT22;16814;52.118;11.436;2023-12-29T11:43:15;9.80;99.90
29571;DHT22;16814;52.118;11.436;2023-12-29T11:45:43;9.80;99.90
29571;DHT22;16814;52.118;11.436;2023-12-29T11:48:12;9.90;99.90
29571;DHT22;16814;52.118;11.436;2023-12-29T11:51:00;9.80;99.90
29571;DHT22;16814;52.118;11.436;2023-12-29T11:53:33;9.80;99.90
29571;DHT22;16814;52.118;11.436;2023-12-29T11:56:00;9.80;99.90
29571;DHT22;16814;52.118;11.436;2023-12-29T11:58:27;9.90;99.90
29571;DHT22;16814;52.118;11.436;2023-12-29T12:01:00;9.90;99.90
29571;DHT22;16814;52.118;11.436;2023-12-29T12:03:30;9.90;99.90
29571;DHT22;16814;52.118;11.436;2023-12-29T12:05:57;9.90;99.90
29571;DHT22;16814;52.118;11.436;2023-12-29T12:08:34;9.90;99.90
29571;DHT22;16814;52.118;11.436;2023-12-29T12:13:59;10.00;99.90
29571;DHT22;16814;52.118;11.436;2023-12-29T12:16:54;10.00;99.90
29571;DHT22;16814;52.118;11.436;2023-12-29T12:19:21;10.10;99.90
29571;DHT22;16814;52.118;11.436;2023-12-29T12:21:54;10.10;99.90
29571;DHT22;16814;52.118;11.436;2023-12-29T12:24:27;10.10;99.90
29571;DHT22;16814;52.118;11.436;2023-12-29T12:26:54;10.10;99.90
29571;DHT22;16814;52.118;11.436;2023-12-29T12:29:21;10.10;99.90
29571;DHT22;16814;52.118;11.436;2023-12-29T12:31:58;10.20;99.90
29571;DHT22;16814;52.118;11.436;2023-12-29T12:34:25;10.10;99.90
29571;DHT22;16814;52.118;11.436;2023-12-29T12:36:55;10.10;99.90
29571;DHT22;16814;52.118;11.436;2023-12-29T12:39:23;10.10;99.90
29571;DHT22;16814;52.118;11.436;2023-12-29T12:41:51;10.00;99.90
29571;DHT22;16814;52.118;11.436;2023-12-29T12:44:17;10.10;99.90
29571;DHT22;16814;52.118;11.436;2023-12-29T12:46:56;10.10;99.90
29571;DHT22;16814;52.118;11.436;2023-12-29T12:49:23;10.10;99.90
29571;DHT22;16814;52.118;11.436;2023-12-29T12:51:49;10.10;99.90
29571;DHT22;16814;52.118;11.436;2023-12-29T12:54:22;10.10;99.90
29571;DHT22;16814;52.118;11.436;2023-12-29T12:56:50;10.10;99.90
29571;DHT22;16814;52.118;11.436;2023-12-29T12:59:17;10.10;99.90
29571;DHT22;16814;52.118;11.436;2023-12-29T13:01:46;10.10;99.90
29571;DHT22;16814;52.118;11.436;2023-12-29T13:04:13;10.10;99.90
29571;DHT22;16814;52.118;11.436;2023-12-29T13:06:41;10.10;99.90
29571;DHT22;16814;52.118;11.436;2023-12-29T13:09:09;10.10;99.90
29571;DHT22;16814;52.118;11.436;2023-12-29T13:11:45;10.10;99.90
29571;DHT22;16814;52.118;11.436;2023-12-29T13:14:22;10.10;99.90
29571;DHT22;16814;52.118;11.436;2023-12-29T13:16:49;10.00;99.90
29571;DHT22;16814;52.118;11.436;2023-12-29T13:19:24;10.10;99.90
29571;DHT22;16814;52.118;11.436;2023-12-29T13:21:54;10.10;99.90
29571;DHT22;16814;52.118;11.436;2023-12-29T13:24:26;10.10;99.90
29571;DHT22;16814;52.118;11.436;2023-12-29T13:26:58;10.10;99.90
29571;DHT22;16814;52.118;11.436;2023-12-29T13:29:30;10.10;99.90
29571;DHT22;16814;52.118;11.436;2023-12-29T13:32:23;10.10;99.90
29571;DHT22;16814;52.118;11.436;2023-12-29T13:38:19;10.10;99.90
29571;DHT22;16814;52.118;11.436;2023-12-29T13:41:03;10.10;99.90
29571;DHT22;16814;52.118;11.436;2023-12-29T13:43:32;10.20;99.90
29571;DHT22;16814;52.118;11.436;2023-12-29T13:46:00;10.10;99.90
29571;DHT22;16814;52.118;11.436;2023-12-29T13:48:28;10.10;99.90
29571;DHT22;16814;52.118;11.436;2023-12-29T13:50:55;10.10;99.90
29571;DHT22;16814;52.118;11.436;2023-12-29T13:53:23;10.10;99.90
29571;DHT22;16814;52.118;11.436;2023-12-29T13:55:50;10.00;99.90
29571;DHT22;16814;52.118;11.436;2023-12-29T13:58:18;10.00;99.90
29571;DHT22;16814;52.118;11.436;2023-12-29T14:00:46;10.00;99.90
29571;DHT22;16814;52.118;11.436;2023-12-29T14:03:31;10.10;99.90
29571;DHT22;16814;52.118;11.436;2023-12-29T14:06:12;10.00;99.90
29571;DHT22;16814;52.118;11.436;2023-12-29T14:08:44;10.00;99.90
29571;DHT22;16814;52.118;11.436;2023-12-29T14:11:12;10.00;99.90
29571;DHT22;16814;52.118;11.436;2023-12-29T14:13:45;10.00;99.90
29571;DHT22;16814;52.118;11.436;2023-12-29T14:16:11;9.90;99.90
29571;DHT22;16814;52.118;11.436;2023-12-29T14:18:55;9.90;99.90
29571;DHT22;16814;52.118;11.436;2023-12-29T14:21:29;9.80;99.90
29571;DHT22;16814;52.118;11.436;2023-12-29T14:24:14;9.80;99.90
29571;DHT22;16814;52.118;11.436;2023-12-29T14:26:57;9.80;99.90
29571;DHT22;16814;52.118;11.436;2023-12-29T14:29:26;9.80;99.90
29571;DHT22;16814;52.118;11.436;2023-12-29T14:31:53;9.70;99.90
29571;DHT22;16814;52.118;11.436;2023-12-29T14:34:21;9.70;99.90
29571;DHT22;16814;52.118;11.436;2023-12-29T14:36:48;9.70;99.90
29571;DHT22;16814;52.118;11.436;2023-12-29T14:39:17;9.70;99.90
29571;DHT22;16814;52.118;11.436;2023-12-29T14:41:44;9.70;99.90
29571;DHT22;16814;52.118;11.436;2023-12-29T14:44:11;10.00;99.90
29571;DHT22;16814;52.118;11.436;2023-12-29T14:46:39;9.60;99.90
29571;DHT22;16814;52.118;11.436;2023-12-29T14:49:14;9.60;99.90
29571;DHT22;16814;52.118;11.436;2023-12-29T14:51:41;9.50;99.90
29571;DHT22;16814;52.118;11.436;2023-12-29T14:54:06;9.50;99.90
29571;DHT22;16814;52.118;11.436;2023-12-29T14:56:33;9.50;99.90
29571;DHT22;16814;52.118;11.436;2023-12-29T14:59:00;9.40;99.90
29571;DHT22;16814;52.118;11.436;2023-12-29T15:01:27;9.40;99.90
29571;DHT22;16814;52.118;11.436;2023-12-29T15:03:54;9.40;99.90
29571;DHT22;16814;52.118;11.436;2023-12-29T15:06:21;9.30;99.90
29571;DHT22;16814;52.118;11.436;2023-12-29T15:08:47;9.30;99.90
29571;DHT22;16814;52.118;11.436;2023-12-29T15:11:13;9.30;99.90
29571;DHT22;16814;52.118;11.436;2023-12-29T15:13:40;9.30;99.90
29571;DHT22;16814;52.118;11.436;2023-12-29T15:16:08;9.30;99.90
29571;DHT22;16814;52.118;11.436;2023-12-29T15:18:35;9.30;99.90
29571;DHT22;16814;52.118;11.436;2023-12-29T15:21:00;9.20;99.90
29571;DHT22;16814;52.118;11.436;2023-12-29T15:23:29;9.20;99.90
29571;DHT22;16814;52.118;11.436;2023-12-29T15:25:57;9.20;99.90
29571;DHT22;16814;52.118;11.436;2023-12-29T15:28:24;9.20;99.90
29571;DHT22;16814;52.118;11.436;2023-12-29T15:30:51;9.20;99.90
29571;DHT22;16814;52.118;11.436;2023-12-29T15:33:18;9.20;99.90
29571;DHT22;16814;52.118;11.436;2023-12-29T15:35:44;9.20;99.90
29571;DHT22;16814;52.118;11.436;2023-12-29T15:38:10;9.20;99.90
29571;DHT22;16814;52.118;11.436;2023-12-29T15:40:36;9.00;99.90
29571;DHT22;16814;52.118;11.436;2023-12-29T15:43:02;9.20;99.90
29571;DHT22;16814;52.118;11.436;2023-12-29T15:45:30;9.30;99.90
29571;DHT22;16814;52.118;11.436;2023-12-29T15:47:57;9.20;99.90
29571;DHT22;16814;52.118;11.436;2023-12-29T15:50:23;9.20;99.90
29571;DHT22;16814;52.118;11.436;2023-12-29T15:52:48;9.20;99.90
29571;DHT22;16814;52.118;11.436;2023-12-29T15:55:14;9.30;99.90
29571;DHT22;16814;52.118;11.436;2023-12-29T15:57:41;9.30;99.90